sensor_id;sensor_type;location;lat;lon;timestamp;pressure;altitude;pressure_sealevel;temperature;humidity
35878;BME280;21982;49.804;24.072;2023-12-29T00:03:38;97214.56;;;7.94;60.83
35878;BME280;21982;49.804;24.072;2023-12-29T00:06:04;97136.88;;;7.51;60.84
35878;BME280;21982;49.804;24.072;2023-12-29T00:08:30;97207.09;;;7.97;61.27
35878;BME280;21982;49.804;24.072;2023-12-29T00:10:56;97201.94;;;8.04;61.17
35878;BME280;21982;49.804;24.072;2023-12-29T00:13:22;97062.94;;;7.21;61.13
35878;BME280;21982;49.804;24.072;2023-12-29T00:15:56;96910.13;;;6.22;60.40
35878;BME280;21982;49.804;24.072;2023-12-29T00:18:22;97061.78;;;6.93;60.92
35878;BME280;21982;49.804;24.072;2023-12-29T00:20:50;96951.13;;;6.47;60.72
35878;BME280;21982;49.804;24.072;2023-12-29T00:23:16;97256.25;;;8.21;61.01
35878;BME280;21982;49.804;24.072;2023-12-29T00:25:41;97212.88;;;8.24;60.99
35878;BME280;21982;49.804;24.072;2023-12-29T00:28:07;97076.19;;;7.36;60.85
35878;BME280;21982;49.804;24.072;2023-12-29T00:30:33;96719.44;;;4.78;60.49
35878;BME280;21982;49.804;24.072;2023-12-29T00:33:00;97212.06;;;8.23;61.22
35878;BME280;21982;49.804;24.072;2023-12-29T00:35:25;97157.16;;;7.73;60.61
35878;BME280;21982;49.804;24.072;2023-12-29T00:37:51;97207.94;;;8.21;60.68
35878;BME280;21982;49.804;24.072;2023-12-29T00:40:17;96896.28;;;6.28;60.74
35878;BME280;21982;49.804;24.072;2023-12-29T00:42:42;97248.34;;;8.21;60.68
35878;BME280;21982;49.804;24.072;2023-12-29T00:45:08;97167.63;;;7.89;60.88
35878;BME280;21982;49.804;24.072;2023-12-29T00:47:34;97133.13;;;7.68;60.42
35878;BME280;21982;49.804;24.072;2023-12-29T00:50:00;97081.25;;;7.46;61.41
35878;BME280;21982;49.804;24.072;2023-12-29T00:52:27;97215.34;;;8.25;60.41
35878;BME280;21982;49.804;24.072;2023-12-29T00:54:53;97187.25;;;8.10;60.78
35878;BME280;21982;49.804;24.072;2023-12-29T00:57:21;97166.66;;;8.05;60.65
35878;BME280;21982;49.804;24.072;2023-12-29T00:59:47;96951.63;;;6.73;60.28
35878;BME280;21982;49.804;24.072;2023-12-29T01:02:13;96818.91;;;5.91;60.44
35878;BME280;21982;49.804;24.072;2023-12-29T01:04:38;97155.22;;;7.67;60.72
35878;BME280;21982;49.804;24.072;2023-12-29T01:07:06;97222.38;;;8.33;60.43
35878;BME280;21982;49.804;24.072;2023-12-29T01:09:32;97084.13;;;7.59;60.40
35878;BME280;21982;49.804;24.072;2023-12-29T01:12:03;97158.06;;;8.11;60.75
35878;BME280;21982;49.804;24.072;2023-12-29T01:14:29;97198.94;;;8.38;60.05
35878;BME280;21982;49.804;24.072;2023-12-29T01:16:55;96981.41;;;7.05;60.22
35878;BME280;21982;49.804;24.072;2023-12-29T01:19:20;97123.16;;;7.86;60.03
35878;BME280;21982;49.804;24.072;2023-12-29T01:21:46;97080.94;;;7.63;60.30
35878;BME280;21982;49.804;24.072;2023-12-29T01:24:11;97076.78;;;7.46;59.92
35878;BME280;21982;49.804;24.072;2023-12-29T01:26:37;97201.75;;;8.36;60.32
35878;BME280;21982;49.804;24.072;2023-12-29T01:29:04;96538.63;;;4.21;60.15
35878;BME280;21982;49.804;24.072;2023-12-29T01:31:30;96560.72;;;4.26;59.53
35878;BME280;21982;49.804;24.072;2023-12-29T01:33:56;97211.47;;;8.36;60.44
35878;BME280;21982;49.804;24.072;2023-12-29T01:36:22;96916.34;;;6.60;60.19
35878;BME280;21982;49.804;24.072;2023-12-29T01:38:49;97022.75;;;7.27;59.72
35878;BME280;21982;49.804;24.072;2023-12-29T01:41:15;97121.47;;;7.93;59.99
35878;BME280;21982;49.804;24.072;2023-12-29T01:46:25;97139.97;;;8.08;60.46
35878;BME280;21982;49.804;24.072;2023-12-29T01:48:52;96645.44;;;4.98;60.25
35878;BME280;21982;49.804;24.072;2023-12-29T01:51:21;97112.75;;;8.07;60.02
35878;BME280;21982;49.804;24.072;2023-12-29T01:53:49;97001.97;;;7.32;59.75
35878;BME280;21982;49.804;24.072;2023-12-29T01:59:08;96678.25;;;5.42;60.21
35878;BME280;21982;49.804;24.072;2023-12-29T02:06:46;97084.25;;;7.88;59.50
35878;BME280;21982;49.804;24.072;2023-12-29T02:09:12;96772.94;;;5.87;60.17
35878;BME280;21982;49.804;24.072;2023-12-29T02:11:38;97079.03;;;7.80;59.78
35878;BME280;21982;49.804;24.072;2023-12-29T02:14:04;97100.47;;;7.54;60.24
35878;BME280;21982;49.804;24.072;2023-12-29T02:16:50;97151.81;;;8.35;60.11
35878;BME280;21982;49.804;24.072;2023-12-29T02:22:03;97002.25;;;7.37;59.95
35878;BME280;21982;49.804;24.072;2023-12-29T02:24:28;97051.38;;;7.53;60.05
35878;BME280;21982;49.804;24.072;2023-12-29T02:27:04;97214.78;;;8.38;60.12
35878;BME280;21982;49.804;24.072;2023-12-29T02:29:35;97092.47;;;7.93;60.04
35878;BME280;21982;49.804;24.072;2023-12-29T02:32:06;97152.28;;;8.38;60.03
35878;BME280;21982;49.804;24.072;2023-12-29T02:34:38;97056.31;;;7.79;60.39
35878;BME280;21982;49.804;24.072;2023-12-29T02:37:07;97152.63;;;8.35;60.21
35878;BME280;21982;49.804;24.072;2023-12-29T02:39:34;96965.84;;;7.18;60.30
35878;BME280;21982;49.804;24.072;2023-12-29T02:41:59;97151.81;;;8.35;60.47
35878;BME280;21982;49.804;24.072;2023-12-29T02:44:25;97103.38;;;8.05;61.10
35878;BME280;21982;49.804;24.072;2023-12-29T02:46:51;97150.16;;;8.34;60.75
35878;BME280;21982;49.804;24.072;2023-12-29T02:49:16;97146.16;;;8.38;60.87
35878;BME280;21982;49.804;24.072;2023-12-29T02:51:42;97122.19;;;8.25;60.96
35878;BME280;21982;49.804;24.072;2023-12-29T02:54:10;96541.44;;;4.66;60.57
35878;BME280;21982;49.804;24.072;2023-12-29T02:56:36;96816.97;;;6.47;60.56
35878;BME280;21982;49.804;24.072;2023-12-29T02:59:01;96949.94;;;7.34;61.27
35878;BME280;21982;49.804;24.072;2023-12-29T03:01:27;97008.28;;;7.69;61.10
35878;BME280;21982;49.804;24.072;2023-12-29T03:03:54;97127.63;;;8.46;61.57
35878;BME280;21982;49.804;24.072;2023-12-29T03:06:23;96974.34;;;7.51;60.88
35878;BME280;21982;49.804;24.072;2023-12-29T03:08:50;97157.66;;;8.45;61.40
35878;BME280;21982;49.804;24.072;2023-12-29T03:11:18;97029.66;;;7.74;61.59
35878;BME280;21982;49.804;24.072;2023-12-29T03:13:44;96911.34;;;6.96;62.02
35878;BME280;21982;49.804;24.072;2023-12-29T03:16:13;97162.00;;;8.38;61.91
35878;BME280;21982;49.804;24.072;2023-12-29T03:18:41;96989.50;;;7.49;62.36
35878;BME280;21982;49.804;24.072;2023-12-29T03:21:07;96743.59;;;5.28;62.56
35878;BME280;21982;49.804;24.072;2023-12-29T03:23:33;96904.06;;;6.83;63.18
35878;BME280;21982;49.804;24.072;2023-12-29T03:25:59;97088.81;;;7.71;62.84
35878;BME280;21982;49.804;24.072;2023-12-29T03:31:19;97158.59;;;8.29;63.05
35878;BME280;21982;49.804;24.072;2023-12-29T03:33:45;97157.75;;;8.06;63.07
35878;BME280;21982;49.804;24.072;2023-12-29T03:36:13;97015.50;;;7.52;63.32
35878;BME280;21982;49.804;24.072;2023-12-29T03:47:13;96410.69;;;3.85;62.96
35878;BME280;21982;49.804;24.072;2023-12-29T04:14:33;97120.09;;;8.20;64.10
35878;BME280;21982;49.804;24.072;2023-12-29T04:20:22;97118.44;;;8.19;64.05
35878;BME280;21982;49.804;24.072;2023-12-29T04:22:47;96456.47;;;4.14;63.53
35878;BME280;21982;49.804;24.072;2023-12-29T04:25:15;96852.63;;;6.50;63.87
35878;BME280;21982;49.804;24.072;2023-12-29T04:27:41;96951.75;;;7.11;64.13
35878;BME280;21982;49.804;24.072;2023-12-29T04:30:07;97119.22;;;8.28;63.88
35878;BME280;21982;49.804;24.072;2023-12-29T04:32:33;97113.75;;;8.29;64.14
35878;BME280;21982;49.804;24.072;2023-12-29T04:34:58;96570.19;;;4.91;63.39
35878;BME280;21982;49.804;24.072;2023-12-29T04:37:24;97073.97;;;7.70;64.11
35878;BME280;21982;49.804;24.072;2023-12-29T04:39:50;96344.66;;;3.51;63.34
35878;BME280;21982;49.804;24.072;2023-12-29T04:47:26;96919.34;;;7.11;63.46
35878;BME280;21982;49.804;24.072;2023-12-29T04:49:54;96974.56;;;7.42;63.93
35878;BME280;21982;49.804;24.072;2023-12-29T04:52:20;97111.28;;;8.28;63.93
35878;BME280;21982;49.804;24.072;2023-12-29T04:57:20;96840.47;;;6.49;63.73
35878;BME280;21982;49.804;24.072;2023-12-29T04:59:46;96548.56;;;4.89;63.44
35878;BME280;21982;49.804;24.072;2023-12-29T05:02:11;96748.97;;;5.82;63.30
35878;BME280;21982;49.804;24.072;2023-12-29T05:04:40;96617.00;;;5.18;63.71
35878;BME280;21982;49.804;24.072;2023-12-29T05:07:11;96997.03;;;7.75;63.49
35878;BME280;21982;49.804;24.072;2023-12-29T05:09:37;97052.94;;;7.62;63.31
35878;BME280;21982;49.804;24.072;2023-12-29T05:12:03;96829.75;;;6.58;63.48
35878;BME280;21982;49.804;24.072;2023-12-29T05:14:28;96905.75;;;6.99;63.11
35878;BME280;21982;49.804;24.072;2023-12-29T05:16:54;97121.56;;;8.23;63.40
35878;BME280;21982;49.804;24.072;2023-12-29T05:19:19;97131.22;;;8.30;63.75
35878;BME280;21982;49.804;24.072;2023-12-29T05:21:48;96869.25;;;6.73;63.01
35878;BME280;21982;49.804;24.072;2023-12-29T05:24:19;96836.81;;;6.58;63.20
35878;BME280;21982;49.804;24.072;2023-12-29T05:26:44;96506.44;;;4.51;63.15
35878;BME280;21982;49.804;24.072;2023-12-29T05:29:10;96870.72;;;6.76;63.34
35878;BME280;21982;49.804;24.072;2023-12-29T05:31:36;97176.78;;;8.47;63.27
35878;BME280;21982;49.804;24.072;2023-12-29T05:34:03;96608.84;;;5.36;63.03
35878;BME280;21982;49.804;24.072;2023-12-29T05:36:35;97105.88;;;8.44;63.17
35878;BME280;21982;49.804;24.072;2023-12-29T05:39:05;97060.09;;;7.99;63.22
35878;BME280;21982;49.804;24.072;2023-12-29T05:41:34;97046.78;;;8.16;63.01
35878;BME280;21982;49.804;24.072;2023-12-29T05:44:00;96798.97;;;6.59;63.39
35878;BME280;21982;49.804;24.072;2023-12-29T05:46:26;97105.00;;;8.52;63.67
35878;BME280;21982;49.804;24.072;2023-12-29T05:48:51;96514.34;;;4.82;62.65
35878;BME280;21982;49.804;24.072;2023-12-29T05:51:18;96438.00;;;3.99;62.92
35878;BME280;21982;49.804;24.072;2023-12-29T05:53:44;97116.00;;;8.55;63.26
35878;BME280;21982;49.804;24.072;2023-12-29T05:56:15;96437.19;;;4.37;62.72
35878;BME280;21982;49.804;24.072;2023-12-29T05:58:41;96988.47;;;7.73;63.14
35878;BME280;21982;49.804;24.072;2023-12-29T06:01:08;96953.38;;;7.58;63.25
35878;BME280;21982;49.804;24.072;2023-12-29T06:03:34;97104.88;;;8.45;63.56
35878;BME280;21982;49.804;24.072;2023-12-29T06:13:45;97097.09;;;8.29;63.57
35878;BME280;21982;49.804;24.072;2023-12-29T06:16:22;96353.50;;;3.50;63.32
35878;BME280;21982;49.804;24.072;2023-12-29T06:18:50;96694.56;;;5.60;63.63
35878;BME280;21982;49.804;24.072;2023-12-29T06:21:16;96950.22;;;7.17;63.92
35878;BME280;21982;49.804;24.072;2023-12-29T06:26:20;96980.66;;;7.19;63.92
35878;BME280;21982;49.804;24.072;2023-12-29T06:28:51;97036.03;;;7.34;64.13
35878;BME280;21982;49.804;24.072;2023-12-29T06:31:17;96946.34;;;6.82;64.12
35878;BME280;21982;49.804;24.072;2023-12-29T06:33:43;97128.25;;;7.88;64.56
35878;BME280;21982;49.804;24.072;2023-12-29T06:36:09;97115.41;;;7.85;64.35
35878;BME280;21982;49.804;24.072;2023-12-29T06:38:36;97051.72;;;7.27;64.44
35878;BME280;21982;49.804;24.072;2023-12-29T06:41:03;97124.97;;;7.86;64.90
35878;BME280;21982;49.804;24.072;2023-12-29T06:43:29;97024.31;;;7.36;64.61
35878;BME280;21982;49.804;24.072;2023-12-29T06:45:59;97110.91;;;7.93;64.71
35878;BME280;21982;49.804;24.072;2023-12-29T06:48:26;97058.47;;;7.53;64.57
35878;BME280;21982;49.804;24.072;2023-12-29T06:50:51;97112.31;;;7.81;64.47
35878;BME280;21982;49.804;24.072;2023-12-29T06:53:20;97109.03;;;7.79;64.20
35878;BME280;21982;49.804;24.072;2023-12-29T06:55:49;96512.69;;;3.79;64.07
35878;BME280;21982;49.804;24.072;2023-12-29T06:58:14;97128.47;;;7.78;64.83
35878;BME280;21982;49.804;24.072;2023-12-29T07:00:42;97101.28;;;7.78;64.36
35878;BME280;21982;49.804;24.072;2023-12-29T07:03:08;97125.19;;;7.76;64.38
35878;BME280;21982;49.804;24.072;2023-12-29T07:05:33;96846.72;;;6.17;64.40
35878;BME280;21982;49.804;24.072;2023-12-29T07:07:59;97079.25;;;7.48;64.22
35878;BME280;21982;49.804;24.072;2023-12-29T07:10:24;96970.72;;;6.76;64.58
35878;BME280;21982;49.804;24.072;2023-12-29T07:12:50;97132.91;;;7.78;64.79
35878;BME280;21982;49.804;24.072;2023-12-29T07:15:18;97001.47;;;7.06;65.01
35878;BME280;21982;49.804;24.072;2023-12-29T07:17:44;96849.03;;;6.12;64.25
35878;BME280;21982;49.804;24.072;2023-12-29T07:20:10;97057.84;;;7.51;63.75
35878;BME280;21982;49.804;24.072;2023-12-29T07:22:36;97109.31;;;7.84;64.54
35878;BME280;21982;49.804;24.072;2023-12-29T07:25:20;96991.38;;;7.18;64.55
35878;BME280;21982;49.804;24.072;2023-12-29T07:27:45;97108.66;;;7.82;63.90
35878;BME280;21982;49.804;24.072;2023-12-29T07:30:14;97088.03;;;7.63;64.17
35878;BME280;21982;49.804;24.072;2023-12-29T07:35:24;96990.69;;;6.93;64.08
35878;BME280;21982;49.804;24.072;2023-12-29T07:37:50;96586.03;;;4.58;64.28
35878;BME280;21982;49.804;24.072;2023-12-29T07:40:19;97122.03;;;8.03;64.54
35878;BME280;21982;49.804;24.072;2023-12-29T07:42:45;96986.63;;;7.13;63.54
35878;BME280;21982;49.804;24.072;2023-12-29T07:45:14;97129.28;;;8.24;63.32
35878;BME280;21982;49.804;24.072;2023-12-29T07:47:39;97118.84;;;8.31;64.08
35878;BME280;21982;49.804;24.072;2023-12-29T07:50:05;97010.34;;;7.59;63.53
35878;BME280;21982;49.804;24.072;2023-12-29T07:52:31;96821.28;;;6.40;63.27
35878;BME280;21982;49.804;24.072;2023-12-29T07:54:56;97089.19;;;7.91;62.87
35878;BME280;21982;49.804;24.072;2023-12-29T07:57:25;97090.13;;;8.13;63.35
35878;BME280;21982;49.804;24.072;2023-12-29T07:59:51;96965.78;;;7.49;63.81
35878;BME280;21982;49.804;24.072;2023-12-29T08:02:24;97020.56;;;7.77;63.82
35878;BME280;21982;49.804;24.072;2023-12-29T08:05:05;97129.34;;;8.39;63.32
35878;BME280;21982;49.804;24.072;2023-12-29T08:07:33;96801.53;;;6.44;62.99
35878;BME280;21982;49.804;24.072;2023-12-29T08:10:00;97072.56;;;8.05;62.71
35878;BME280;21982;49.804;24.072;2023-12-29T08:12:26;96803.88;;;6.39;63.04
35878;BME280;21982;49.804;24.072;2023-12-29T08:14:53;97119.66;;;8.54;63.14
35878;BME280;21982;49.804;24.072;2023-12-29T08:17:19;97128.03;;;8.58;62.78
35878;BME280;21982;49.804;24.072;2023-12-29T08:19:44;97037.56;;;7.74;62.92
35878;BME280;21982;49.804;24.072;2023-12-29T08:22:10;96662.00;;;5.69;62.40
35878;BME280;21982;49.804;24.072;2023-12-29T08:24:35;96785.88;;;6.73;62.13
35878;BME280;21982;49.804;24.072;2023-12-29T08:27:02;96680.19;;;6.10;62.27
35878;BME280;21982;49.804;24.072;2023-12-29T08:29:28;96916.75;;;7.63;61.89
35878;BME280;21982;49.804;24.072;2023-12-29T08:31:54;96864.69;;;7.65;61.74
35878;BME280;21982;49.804;24.072;2023-12-29T08:34:19;97097.72;;;8.83;61.29
35878;BME280;21982;49.804;24.072;2023-12-29T08:36:45;96752.38;;;7.05;61.29
35878;BME280;21982;49.804;24.072;2023-12-29T08:39:10;97060.28;;;9.09;61.25
35878;BME280;21982;49.804;24.072;2023-12-29T08:41:38;96875.22;;;7.65;61.06
35878;BME280;21982;49.804;24.072;2023-12-29T08:44:04;97141.69;;;9.50;61.14
35878;BME280;21982;49.804;24.072;2023-12-29T08:46:37;97033.19;;;8.86;60.95
35878;BME280;21982;49.804;24.072;2023-12-29T08:49:02;97057.38;;;9.04;61.10
35878;BME280;21982;49.804;24.072;2023-12-29T08:51:30;97141.56;;;9.58;61.13
35878;BME280;21982;49.804;24.072;2023-12-29T08:53:56;97088.59;;;9.30;60.58
35878;BME280;21982;49.804;24.072;2023-12-29T08:56:21;96901.63;;;8.24;60.53
35878;BME280;21982;49.804;24.072;2023-12-29T08:58:47;96973.88;;;8.52;60.55
35878;BME280;21982;49.804;24.072;2023-12-29T09:01:13;97119.38;;;9.37;60.28
35878;BME280;21982;49.804;24.072;2023-12-29T09:03:38;96946.75;;;8.58;60.43
35878;BME280;21982;49.804;24.072;2023-12-29T09:06:04;97138.47;;;10.12;60.29
35878;BME280;21982;49.804;24.072;2023-12-29T09:08:31;97131.44;;;10.40;60.20
35878;BME280;21982;49.804;24.072;2023-12-29T09:10:59;97069.47;;;10.28;59.19
35878;BME280;21982;49.804;24.072;2023-12-29T09:13:25;97061.31;;;10.29;59.14
35878;BME280;21982;49.804;24.072;2023-12-29T09:15:53;96815.50;;;8.88;58.88
35878;BME280;21982;49.804;24.072;2023-12-29T09:18:19;96864.88;;;8.73;58.90
35878;BME280;21982;49.804;24.072;2023-12-29T09:20:45;97157.97;;;10.74;58.87
35878;BME280;21982;49.804;24.072;2023-12-29T09:23:10;96725.75;;;8.10;58.54
35878;BME280;21982;49.804;24.072;2023-12-29T09:25:38;96955.34;;;9.60;58.59
35878;BME280;21982;49.804;24.072;2023-12-29T09:28:05;97113.56;;;10.70;58.72
35878;BME280;21982;49.804;24.072;2023-12-29T09:30:32;96727.56;;;8.24;58.42
35878;BME280;21982;49.804;24.072;2023-12-29T09:32:57;96916.59;;;9.25;58.20
35878;BME280;21982;49.804;24.072;2023-12-29T09:35:23;96639.66;;;7.59;58.00
35878;BME280;21982;49.804;24.072;2023-12-29T09:37:50;96763.44;;;8.39;58.15
35878;BME280;21982;49.804;24.072;2023-12-29T09:40:15;96887.44;;;9.39;58.20
35878;BME280;21982;49.804;24.072;2023-12-29T09:42:44;97085.84;;;10.45;58.52
35878;BME280;21982;49.804;24.072;2023-12-29T09:45:11;96863.06;;;9.16;58.37
35878;BME280;21982;49.804;24.072;2023-12-29T09:47:42;96683.25;;;7.98;58.05
35878;BME280;21982;49.804;24.072;2023-12-29T09:50:11;96929.50;;;9.34;58.29
35878;BME280;21982;49.804;24.072;2023-12-29T09:52:40;97115.16;;;10.64;58.27
35878;BME280;21982;49.804;24.072;2023-12-29T09:55:09;97089.09;;;10.68;58.33
35878;BME280;21982;49.804;24.072;2023-12-29T09:57:37;96546.00;;;6.85;58.24
35878;BME280;21982;49.804;24.072;2023-12-29T10:00:04;96866.53;;;9.17;57.96
35878;BME280;21982;49.804;24.072;2023-12-29T10:02:30;97106.19;;;10.65;58.20
35878;BME280;21982;49.804;24.072;2023-12-29T10:04:56;97124.09;;;10.63;58.49
35878;BME280;21982;49.804;24.072;2023-12-29T10:07:31;96632.59;;;7.30;57.98
35878;BME280;21982;49.804;24.072;2023-12-29T10:09:57;96820.72;;;8.60;57.66
35878;BME280;21982;49.804;24.072;2023-12-29T10:12:28;97024.09;;;10.31;57.69
35878;BME280;21982;49.804;24.072;2023-12-29T10:15:06;97087.09;;;10.77;57.48
35878;BME280;21982;49.804;24.072;2023-12-29T10:18:00;97077.75;;;10.81;57.38
35878;BME280;21982;49.804;24.072;2023-12-29T10:20:58;97075.72;;;10.83;57.32
35878;BME280;21982;49.804;24.072;2023-12-29T10:23:43;97080.00;;;10.84;57.35
35878;BME280;21982;49.804;24.072;2023-12-29T10:26:16;96976.31;;;10.18;57.34
35878;BME280;21982;49.804;24.072;2023-12-29T10:28:43;97010.22;;;10.29;57.17
35878;BME280;21982;49.804;24.072;2023-12-29T10:31:15;96688.44;;;8.49;57.15
35878;BME280;21982;49.804;24.072;2023-12-29T10:33:47;96777.22;;;8.78;57.24
35878;BME280;21982;49.804;24.072;2023-12-29T10:36:18;97068.38;;;10.78;57.51
35878;BME280;21982;49.804;24.072;2023-12-29T10:38:44;96949.00;;;9.83;57.05
35878;BME280;21982;49.804;24.072;2023-12-29T10:41:17;96926.13;;;9.96;57.06
35878;BME280;21982;49.804;24.072;2023-12-29T10:43:49;97073.13;;;10.89;57.05
35878;BME280;21982;49.804;24.072;2023-12-29T10:46:17;96951.06;;;10.15;56.66
35878;BME280;21982;49.804;24.072;2023-12-29T10:48:51;96730.19;;;8.88;56.80
35878;BME280;21982;49.804;24.072;2023-12-29T10:51:26;97058.28;;;10.95;56.23
35878;BME280;21982;49.804;24.072;2023-12-29T10:53:55;96811.81;;;9.11;56.36
35878;BME280;21982;49.804;24.072;2023-12-29T10:56:23;96749.53;;;8.95;55.88
35878;BME280;21982;49.804;24.072;2023-12-29T10:59:05;96997.00;;;10.63;55.60
35878;BME280;21982;49.804;24.072;2023-12-29T11:01:35;96849.97;;;9.85;55.76
35878;BME280;21982;49.804;24.072;2023-12-29T11:04:03;97017.13;;;10.99;55.70
35878;BME280;21982;49.804;24.072;2023-12-29T11:06:40;97046.22;;;11.33;55.14
35878;BME280;21982;49.804;24.072;2023-12-29T11:09:10;97047.47;;;11.37;54.64
35878;BME280;21982;49.804;24.072;2023-12-29T11:27:07;96826.53;;;10.64;54.64
35878;BME280;21982;49.804;24.072;2023-12-29T11:29:33;96923.91;;;11.76;54.03
35878;BME280;21982;49.804;24.072;2023-12-29T11:32:01;97037.34;;;12.60;53.03
35878;BME280;21982;49.804;24.072;2023-12-29T11:34:49;97013.66;;;12.52;52.81
35878;BME280;21982;49.804;24.072;2023-12-29T11:37:41;97004.72;;;12.33;52.91
35878;BME280;21982;49.804;24.072;2023-12-29T11:40:25;97011.66;;;12.21;53.36
35878;BME280;21982;49.804;24.072;2023-12-29T11:42:57;96631.09;;;9.87;53.23
35878;BME280;21982;49.804;24.072;2023-12-29T11:45:30;96562.94;;;9.08;53.08
35878;BME280;21982;49.804;24.072;2023-12-29T11:48:05;96357.72;;;7.87;53.01
35878;BME280;21982;49.804;24.072;2023-12-29T11:50:36;96701.84;;;9.79;53.27
35878;BME280;21982;49.804;24.072;2023-12-29T11:53:04;96633.28;;;9.64;53.40
35878;BME280;21982;49.804;24.072;2023-12-29T11:55:33;96963.28;;;12.25;52.88
35878;BME280;21982;49.804;24.072;2023-12-29T11:58:00;96870.16;;;12.78;51.66
35878;BME280;21982;49.804;24.072;2023-12-29T12:00:46;96870.34;;;14.14;50.24
35878;BME280;21982;49.804;24.072;2023-12-29T12:03:18;96984.06;;;15.41;48.76
35878;BME280;21982;49.804;24.072;2023-12-29T12:05:49;96910.03;;;15.37;48.20
35878;BME280;21982;49.804;24.072;2023-12-29T12:08:31;96975.28;;;15.53;47.59
35878;BME280;21982;49.804;24.072;2023-12-29T12:13:55;96988.13;;;15.14;47.16
35878;BME280;21982;49.804;24.072;2023-12-29T12:19:10;96985.53;;;13.78;48.33
35878;BME280;21982;49.804;24.072;2023-12-29T12:21:37;96993.03;;;13.18;49.39
35878;BME280;21982;49.804;24.072;2023-12-29T12:24:07;96996.03;;;13.35;49.07
35878;BME280;21982;49.804;24.072;2023-12-29T12:26:36;96701.22;;;11.36;48.68
35878;BME280;21982;49.804;24.072;2023-12-29T12:29:01;97010.50;;;13.46;49.12
35878;BME280;21982;49.804;24.072;2023-12-29T12:31:27;96474.66;;;9.77;49.06
35878;BME280;21982;49.804;24.072;2023-12-29T12:33:56;96846.13;;;12.08;49.44
35878;BME280;21982;49.804;24.072;2023-12-29T12:36:23;96998.13;;;12.68;49.65
35878;BME280;21982;49.804;24.072;2023-12-29T12:38:53;96916.97;;;12.01;49.67
35878;BME280;21982;49.804;24.072;2023-12-29T12:41:23;96899.41;;;11.81;50.18
35878;BME280;21982;49.804;24.072;2023-12-29T12:44:11;96995.72;;;12.34;50.15
35878;BME280;21982;49.804;24.072;2023-12-29T12:46:48;96701.03;;;10.52;50.40
35878;BME280;21982;49.804;24.072;2023-12-29T12:49:19;96861.88;;;11.37;50.54
35878;BME280;21982;49.804;24.072;2023-12-29T12:51:48;96929.19;;;11.63;50.84
35878;BME280;21982;49.804;24.072;2023-12-29T12:54:19;96888.59;;;11.29;50.74
35878;BME280;21982;49.804;24.072;2023-12-29T12:56:46;97003.09;;;11.86;50.99
35878;BME280;21982;49.804;24.072;2023-12-29T12:59:26;96877.28;;;10.81;51.07
35878;BME280;21982;49.804;24.072;2023-12-29T13:01:59;96822.13;;;10.24;51.59
35878;BME280;21982;49.804;24.072;2023-12-29T13:04:35;96263.84;;;6.89;51.34
35878;BME280;21982;49.804;24.072;2023-12-29T13:07:01;96738.50;;;9.88;51.76
35878;BME280;21982;49.804;24.072;2023-12-29T13:09:26;96855.22;;;10.61;52.06
35878;BME280;21982;49.804;24.072;2023-12-29T13:12:07;96640.69;;;9.40;51.41
35878;BME280;21982;49.804;24.072;2023-12-29T13:14:33;96775.31;;;10.31;51.66
35878;BME280;21982;49.804;24.072;2023-12-29T13:17:08;96738.13;;;9.91;51.43
35878;BME280;21982;49.804;24.072;2023-12-29T13:19:39;96770.63;;;10.26;51.58
35878;BME280;21982;49.804;24.072;2023-12-29T13:22:18;96927.91;;;11.19;51.38
35878;BME280;21982;49.804;24.072;2023-12-29T13:24:45;96993.22;;;11.47;51.92
35878;BME280;21982;49.804;24.072;2023-12-29T13:27:11;96983.22;;;11.49;51.75
35878;BME280;21982;49.804;24.072;2023-12-29T13:29:38;96868.50;;;10.81;51.84
35878;BME280;21982;49.804;24.072;2023-12-29T13:32:22;96992.00;;;11.43;51.85
35878;BME280;21982;49.804;24.072;2023-12-29T13:35:16;96878.69;;;10.70;52.07
35878;BME280;21982;49.804;24.072;2023-12-29T13:38:10;96992.41;;;11.39;52.17
35878;BME280;21982;49.804;24.072;2023-12-29T13:40:43;96981.19;;;11.57;52.42
35878;BME280;21982;49.804;24.072;2023-12-29T13:43:15;96951.59;;;11.34;52.28
35878;BME280;21982;49.804;24.072;2023-12-29T13:45:43;96841.00;;;10.68;52.10
35878;BME280;21982;49.804;24.072;2023-12-29T13:48:09;97014.81;;;11.30;52.46
35878;BME280;21982;49.804;24.072;2023-12-29T13:50:46;96766.53;;;9.83;52.35
35878;BME280;21982;49.804;24.072;2023-12-29T13:53:19;96996.66;;;11.27;52.52
35878;BME280;21982;49.804;24.072;2023-12-29T13:55:48;96988.25;;;11.17;53.05
35878;BME280;21982;49.804;24.072;2023-12-29T13:58:16;96753.00;;;9.58;52.84
35878;BME280;21982;49.804;24.072;2023-12-29T14:00:43;96998.03;;;11.17;53.15
35878;BME280;21982;49.804;24.072;2023-12-29T14:03:22;97037.00;;;11.23;52.84
35878;BME280;21982;49.804;24.072;2023-12-29T14:05:55;96995.81;;;11.20;53.04
35878;BME280;21982;49.804;24.072;2023-12-29T14:08:27;97000.06;;;11.15;53.33
35878;BME280;21982;49.804;24.072;2023-12-29T14:10:56;97000.63;;;10.97;53.40
35878;BME280;21982;49.804;24.072;2023-12-29T14:13:25;96505.13;;;7.89;53.41
35878;BME280;21982;49.804;24.072;2023-12-29T14:15:50;96995.50;;;10.95;53.68
35878;BME280;21982;49.804;24.072;2023-12-29T14:44:53;97024.16;;;9.67;55.70
35878;BME280;21982;49.804;24.072;2023-12-29T14:47:19;96737.41;;;8.00;55.72
35878;BME280;21982;49.804;24.072;2023-12-29T14:49:45;96933.75;;;9.14;56.02
35878;BME280;21982;49.804;24.072;2023-12-29T14:52:11;96592.41;;;7.07;55.60
35878;BME280;21982;49.804;24.072;2023-12-29T15:14:18;96929.81;;;8.38;57.26
35878;BME280;21982;49.804;24.072;2023-12-29T15:16:47;96812.97;;;7.64;57.52
35878;BME280;21982;49.804;24.072;2023-12-29T15:19:12;97019.72;;;8.81;57.17
35878;BME280;21982;49.804;24.072;2023-12-29T15:21:38;96911.25;;;8.17;57.66
35878;BME280;21982;49.804;24.072;2023-12-29T15:24:05;97019.81;;;8.72;57.09
35878;BME280;21982;49.804;24.072;2023-12-29T15:26:30;97011.00;;;8.65;57.73
35878;BME280;21982;49.804;24.072;2023-12-29T15:29:02;97008.91;;;8.61;57.90